createdAt,value
2019-05-17T00:00:22.945Z,85.32
2019-05-17T00:01:22.928Z,85.22
2019-05-17T00:02:22.943Z,85.42
2019-05-17T00:03:22.907Z,85.22
2019-05-17T00:04:22.894Z,85.42
2019-05-17T00:05:22.855Z,85.53
2019-05-17T00:06:22.896Z,85.83
2019-05-17T00:07:22.936Z,85.73
2019-05-17T00:08:33.746Z,85.63
2019-05-17T00:09:23.820Z,85.69
2019-05-17T00:10:22.830Z,85.73
2019-05-17T00:11:22.834Z,85.63
2019-05-17T00:12:22.878Z,85.22
2019-05-17T00:13:22.829Z,85.63
2019-05-17T00:14:22.811Z,85.22
2019-05-17T00:15:22.809Z,86.65
2019-05-17T00:16:22.980Z,86.35
2019-05-17T00:17:22.781Z,85.63
2019-05-17T00:18:22.727Z,85.73
2019-05-17T00:19:22.743Z,85.53
2019-05-17T00:20:22.705Z,85.83
2019-05-17T00:21:22.701Z,85.83
2019-05-17T00:22:22.715Z,85.32
2019-05-17T00:23:22.670Z,85.83
2019-05-17T00:24:22.655Z,85.12
2019-05-17T00:25:22.643Z,85.32
2019-05-17T00:26:22.636Z,85.42
2019-05-17T00:27:22.653Z,85.12
2019-05-17T00:28:22.615Z,85.22
2019-05-17T00:29:22.605Z,85.63
2019-05-17T00:30:22.594Z,85.73
2019-05-17T00:31:22.580Z,85.83
2019-05-17T00:32:22.610Z,86.04
2019-05-17T00:33:22.563Z,86.35
2019-05-17T00:34:22.553Z,86.24
2019-05-17T00:35:22.557Z,86.35
2019-05-17T00:36:22.563Z,86.04
2019-05-17T00:37:22.548Z,86.24
2019-05-17T00:38:22.540Z,86.44
2019-05-17T00:39:22.493Z,86.49
2019-05-17T00:40:22.488Z,86.44
2019-05-17T00:41:22.482Z,86.24
2019-05-17T00:42:22.468Z,86.44
2019-05-17T00:43:22.487Z,86.85
2019-05-17T00:44:22.443Z,86.96
2019-05-17T00:45:22.433Z,86.85
2019-05-17T00:46:22.435Z,86.76
2019-05-17T00:47:22.418Z,86.85
2019-05-17T00:48:22.398Z,86.79
2019-05-17T00:49:22.423Z,87.20
2019-05-17T00:50:22.380Z,87.41
2019-05-17T00:51:22.367Z,86.69
2019-05-17T00:52:22.363Z,86.79
2019-05-17T00:53:22.351Z,87.10
2019-05-17T00:54:22.374Z,86.69
2019-05-17T00:55:22.335Z,87.00
2019-05-17T00:56:22.313Z,86.90
2019-05-17T00:57:22.306Z,86.79
2019-05-17T00:58:22.293Z,86.90
2019-05-17T00:59:22.315Z,87.10
2019-05-17T01:00:22.291Z,86.59
2019-05-17T01:01:22.267Z,86.90
2019-05-17T01:02:22.250Z,86.59
2019-05-17T01:03:22.310Z,87.10
2019-05-17T01:04:22.280Z,86.29
2019-05-17T01:05:22.223Z,86.29
2019-05-17T01:06:22.211Z,86.18
2019-05-17T01:07:22.214Z,86.69
2019-05-17T01:08:22.229Z,85.57
2019-05-17T01:09:22.196Z,85.57
2019-05-17T01:10:22.203Z,86.53
2019-05-17T01:11:22.154Z,86.32
2019-05-17T01:12:22.158Z,86.29
2019-05-17T01:13:22.169Z,86.32
2019-05-17T01:14:22.127Z,86.83
2019-05-17T01:15:22.172Z,86.32
2019-05-17T01:16:22.098Z,86.29
2019-05-17T01:17:22.089Z,86.63
2019-05-17T01:18:22.082Z,86.59
2019-05-17T01:19:22.073Z,85.91
2019-05-17T01:20:22.088Z,86.69
2019-05-17T01:21:22.082Z,86.94
2019-05-17T01:22:22.036Z,86.94
2019-05-17T01:23:22.029Z,86.90
2019-05-17T01:24:22.029Z,86.94
2019-05-17T01:25:22.033Z,86.63
2019-05-17T01:26:22.031Z,86.32
2019-05-17T01:27:22.245Z,86.73
2019-05-17T01:28:22.042Z,86.83
2019-05-17T01:29:21.995Z,86.43
2019-05-17T01:30:22.115Z,86.83
2019-05-17T01:31:21.984Z,86.53
2019-05-17T01:32:22.376Z,86.73
2019-05-17T01:33:21.931Z,87.14
2019-05-17T01:34:21.913Z,87.35
2019-05-17T01:35:21.900Z,86.94
2019-05-17T01:36:21.916Z,87.04
2019-05-17T01:37:21.888Z,87.04
2019-05-17T01:38:21.902Z,86.94
2019-05-17T01:39:21.868Z,87.04
2019-05-17T01:40:21.845Z,86.73
2019-05-17T01:41:21.913Z,86.53
2019-05-17T01:42:21.824Z,86.53
2019-05-17T01:43:21.854Z,87.24
2019-05-17T01:44:21.850Z,86.94
2019-05-17T01:45:21.797Z,86.32
2019-05-17T01:46:21.837Z,86.53
2019-05-17T01:47:21.778Z,86.32
2019-05-17T01:48:21.759Z,86.73
2019-05-17T01:49:21.785Z,86.73
2019-05-17T01:50:21.740Z,86.43
2019-05-17T01:51:21.761Z,86.22
2019-05-17T01:52:21.728Z,85.91
2019-05-17T01:53:21.706Z,85.71
2019-05-17T01:54:21.696Z,85.77
2019-05-17T01:55:21.693Z,85.61
2019-05-17T01:56:21.714Z,85.91
2019-05-17T01:57:21.679Z,85.50
2019-05-17T01:58:21.661Z,85.30
2019-05-17T01:59:21.648Z,85.71
2019-05-17T02:00:21.648Z,85.71
2019-05-17T02:01:21.655Z,85.71
2019-05-17T02:02:21.637Z,85.10
2019-05-17T02:03:21.605Z,85.30
2019-05-17T02:04:21.600Z,86.02
2019-05-17T02:05:21.587Z,85.61
2019-05-17T02:06:21.596Z,85.81
2019-05-17T02:07:21.554Z,86.02
2019-05-17T02:08:21.548Z,85.40
2019-05-17T02:09:34.888Z,85.61
2019-05-17T02:10:22.538Z,85.61
2019-05-17T02:11:21.547Z,84.99
2019-05-17T02:12:21.502Z,84.99
2019-05-17T02:13:21.490Z,84.89
2019-05-17T02:14:21.482Z,84.79
2019-05-17T02:15:21.477Z,84.99
2019-05-17T02:16:21.505Z,85.20
2019-05-17T02:17:21.498Z,85.20
2019-05-17T02:18:21.453Z,85.40
2019-05-17T02:19:21.452Z,85.30
2019-05-17T02:20:21.446Z,85.71
2019-05-17T02:21:21.438Z,85.61
2019-05-17T02:22:21.402Z,85.40
2019-05-17T02:23:21.396Z,85.50
2019-05-17T02:24:21.392Z,85.71
2019-05-17T02:25:21.360Z,85.30
2019-05-17T02:26:21.401Z,85.40
2019-05-17T02:27:22.022Z,85.30
2019-05-17T02:28:21.471Z,84.99
2019-05-17T02:29:21.502Z,85.20
2019-05-17T02:30:23.368Z,84.89
2019-05-17T02:31:24.702Z,85.30
2019-05-17T02:32:23.496Z,85.10
2019-05-17T02:33:23.633Z,84.38
2019-05-17T02:34:23.210Z,85.44
2019-05-17T02:35:23.129Z,84.89
2019-05-17T02:36:22.877Z,85.34
2019-05-17T02:37:23.115Z,84.93
2019-05-17T02:38:22.417Z,85.20
2019-05-17T02:39:23.249Z,85.44
2019-05-17T02:40:22.709Z,85.34
2019-05-17T02:41:22.705Z,85.03
2019-05-17T02:42:22.444Z,84.93
2019-05-17T02:43:23.552Z,85.24
2019-05-17T02:44:23.526Z,84.93
2019-05-17T02:45:23.420Z,85.50
2019-05-17T02:46:23.011Z,85.64
2019-05-17T02:47:23.083Z,85.55
2019-05-17T02:48:23.225Z,85.64
2019-05-17T02:49:23.552Z,85.96
2019-05-17T02:50:23.280Z,85.96
2019-05-17T02:51:23.729Z,85.75
2019-05-17T02:52:22.964Z,85.75
2019-05-17T02:53:22.933Z,85.14
2019-05-17T02:54:23.557Z,85.44
2019-05-17T02:55:23.266Z,85.24
2019-05-17T02:56:23.107Z,85.85
2019-05-17T02:57:23.340Z,86.67
2019-05-17T02:58:23.362Z,86.73
2019-05-17T02:59:23.222Z,85.91
2019-05-17T03:00:23.963Z,85.91
2019-05-17T03:01:23.093Z,85.50
2019-05-17T03:02:24.310Z,85.40
2019-05-17T03:03:23.652Z,85.40
2019-05-17T03:04:23.592Z,85.81
2019-05-17T03:05:23.319Z,85.50
2019-05-17T03:06:22.760Z,85.61
2019-05-17T03:07:23.254Z,85.71
2019-05-17T03:08:23.444Z,85.61
2019-05-17T03:09:22.898Z,85.71
2019-05-17T03:10:25.198Z,85.91
2019-05-17T03:11:22.701Z,85.81
2019-05-17T03:12:23.688Z,85.61
2019-05-17T03:13:23.410Z,86.83
2019-05-17T03:14:22.948Z,86.02
2019-05-17T03:15:23.420Z,85.81
2019-05-17T03:16:23.701Z,86.02
2019-05-17T03:17:23.024Z,85.91
2019-05-17T03:18:22.940Z,85.61
2019-05-17T03:19:23.588Z,86.83
2019-05-17T03:20:23.290Z,85.50
2019-05-17T03:21:22.886Z,86.73
2019-05-17T03:22:23.105Z,86.73
2019-05-17T03:23:23.389Z,86.32
2019-05-17T03:24:22.623Z,86.63
2019-05-17T03:25:23.612Z,86.73
2019-05-17T03:26:23.083Z,86.73
2019-05-17T03:27:23.245Z,86.02
2019-05-17T03:28:23.522Z,85.71
2019-05-17T03:29:22.747Z,86.02
2019-05-17T03:30:25.293Z,85.50
2019-05-17T03:31:26.251Z,86.83
2019-05-17T03:32:26.794Z,86.43
2019-05-17T03:33:26.538Z,86.22
2019-05-17T03:34:26.422Z,86.53
2019-05-17T03:35:26.599Z,86.43
2019-05-17T03:36:26.044Z,86.02
2019-05-17T03:37:30.272Z,86.02
2019-05-17T03:38:22.828Z,85.81
2019-05-17T03:39:22.702Z,85.88
2019-05-17T03:40:55.273Z,85.61
2019-05-17T03:41:27.837Z,86.69
2019-05-17T03:42:22.603Z,86.69
2019-05-17T03:43:22.583Z,86.49
2019-05-17T03:44:22.535Z,86.38
2019-05-17T03:45:22.826Z,86.22
2019-05-17T03:46:23.235Z,86.38
2019-05-17T03:47:22.683Z,86.69
2019-05-17T03:48:22.175Z,85.77
2019-05-17T03:49:22.381Z,85.26
2019-05-17T03:50:22.695Z,85.16
2019-05-17T03:51:23.364Z,84.75
2019-05-17T03:52:22.378Z,84.95
2019-05-17T03:53:22.843Z,85.47
2019-05-17T03:54:22.642Z,85.16
2019-05-17T03:55:23.230Z,85.67
2019-05-17T03:56:22.389Z,85.06
2019-05-17T03:57:23.665Z,84.75
2019-05-17T03:58:23.275Z,84.95
2019-05-17T03:59:20.355Z,85.71
2019-05-17T04:00:23.241Z,85.10
2019-05-17T04:01:22.951Z,85.67
2019-05-17T04:02:22.938Z,85.97
2019-05-17T04:03:22.887Z,85.67
2019-05-17T04:04:22.928Z,85.61
2019-05-17T04:05:22.722Z,85.88
2019-05-17T04:06:23.567Z,85.57
2019-05-17T04:07:23.381Z,85.57
2019-05-17T04:08:22.946Z,85.77
2019-05-17T04:09:22.491Z,86.49
2019-05-17T04:10:22.815Z,86.22
2019-05-17T04:11:31.071Z,86.38
2019-05-17T04:12:23.100Z,85.57
2019-05-17T04:13:23.134Z,85.97
2019-05-17T04:14:22.462Z,85.77
2019-05-17T04:15:23.663Z,85.88
2019-05-17T04:16:23.609Z,85.67
2019-05-17T04:17:22.765Z,86.29
2019-05-17T04:18:23.212Z,86.44
2019-05-17T04:19:22.975Z,86.35
2019-05-17T04:20:22.379Z,86.49
2019-05-17T04:21:23.176Z,86.55
2019-05-17T04:22:20.136Z,86.55
2019-05-17T04:23:23.015Z,85.73
2019-05-17T04:24:22.914Z,85.53
2019-05-17T04:25:23.190Z,85.53
2019-05-17T04:26:22.750Z,84.81
2019-05-17T04:27:22.886Z,84.91
2019-05-17T04:28:23.013Z,85.22
2019-05-17T04:29:22.723Z,85.12
2019-05-17T04:30:23.144Z,85.02
2019-05-17T04:31:22.649Z,84.71
2019-05-17T04:32:23.121Z,85.02
2019-05-17T04:33:22.901Z,85.22
2019-05-17T04:34:22.384Z,84.50
2019-05-17T04:35:22.998Z,85.22
2019-05-17T04:36:22.485Z,84.91
2019-05-17T04:37:22.608Z,85.32
2019-05-17T04:38:23.337Z,85.32
2019-05-17T04:39:22.620Z,85.12
2019-05-17T04:40:22.878Z,84.91
2019-05-17T04:41:35.984Z,85.22
2019-05-17T04:42:22.665Z,84.50
2019-05-17T04:43:22.970Z,85.22
2019-05-17T04:44:22.979Z,85.42
2019-05-17T04:45:22.941Z,84.30
2019-05-17T04:46:23.352Z,84.50
2019-05-17T04:47:22.706Z,83.89
2019-05-17T04:48:23.016Z,84.09
2019-05-17T04:49:19.821Z,83.75
2019-05-17T04:50:22.814Z,84.41
2019-05-17T04:51:23.024Z,84.36
2019-05-17T04:52:22.517Z,84.41
2019-05-17T04:53:23.048Z,84.16
2019-05-17T04:54:22.500Z,83.95
2019-05-17T04:55:22.823Z,85.18
2019-05-17T04:56:22.527Z,84.98
2019-05-17T04:57:22.924Z,84.77
2019-05-17T04:58:22.994Z,84.36
2019-05-17T04:59:19.717Z,83.95
2019-05-17T05:00:21.588Z,84.16
2019-05-17T05:01:23.353Z,84.47
2019-05-17T05:02:19.695Z,84.88
2019-05-17T05:03:22.909Z,84.26
2019-05-17T05:04:22.480Z,83.75
2019-05-17T05:05:22.482Z,83.75
2019-05-17T05:06:19.635Z,83.71
2019-05-17T05:07:22.500Z,84.33
2019-05-17T05:08:22.347Z,84.53
2019-05-17T05:09:19.614Z,85.10
2019-05-17T05:10:22.294Z,84.80
2019-05-17T05:11:19.591Z,84.69
2019-05-17T05:12:22.647Z,84.80
2019-05-17T05:13:22.513Z,83.94
2019-05-17T05:14:19.556Z,84.75
2019-05-17T05:15:19.566Z,84.25
2019-05-17T05:16:22.430Z,84.25
2019-05-17T05:17:22.016Z,83.94
2019-05-17T05:18:21.920Z,83.73
2019-05-17T05:19:22.220Z,83.73
2019-05-17T05:20:21.972Z,83.59
2019-05-17T05:21:19.479Z,84.04
2019-05-17T05:22:22.334Z,83.49
2019-05-17T05:23:19.493Z,83.29
2019-05-17T05:24:19.451Z,82.41
2019-05-17T05:25:21.550Z,82.57
2019-05-17T05:26:19.422Z,83.09
2019-05-17T05:27:19.407Z,82.68
2019-05-17T05:28:19.441Z,82.37
2019-05-17T05:29:21.520Z,82.57
2019-05-17T05:30:19.379Z,82.88
2019-05-17T05:31:19.370Z,83.59
2019-05-17T05:32:19.362Z,83.45
2019-05-17T05:33:21.997Z,82.84
2019-05-17T05:34:21.471Z,82.74
2019-05-17T05:35:19.342Z,82.74
2019-05-17T05:36:19.308Z,82.84
2019-05-17T05:37:20.899Z,82.94
2019-05-17T05:38:21.475Z,82.64
2019-05-17T05:39:19.276Z,82.03
2019-05-17T05:40:21.336Z,82.33
2019-05-17T05:41:19.259Z,82.94
2019-05-17T05:42:19.253Z,82.19
2019-05-17T05:43:19.232Z,81.88
2019-05-17T05:44:21.398Z,81.41
2019-05-17T05:45:19.215Z,82.03
2019-05-17T05:46:19.208Z,82.74
2019-05-17T05:47:19.194Z,83.72
2019-05-17T05:48:19.203Z,83.76
2019-05-17T05:49:21.565Z,83.65
2019-05-17T05:50:21.796Z,83.15
2019-05-17T05:51:21.478Z,82.74
2019-05-17T05:52:21.693Z,82.33
2019-05-17T05:53:21.644Z,82.33
2019-05-17T05:54:19.112Z,83.15
2019-05-17T05:55:19.108Z,82.40
2019-05-17T05:56:19.098Z,82.64
2019-05-17T05:57:21.675Z,82.33
2019-05-17T05:58:19.075Z,82.54
2019-05-17T05:59:19.097Z,82.64
2019-05-17T06:00:19.053Z,83.25
2019-05-17T06:01:19.040Z,82.54
2019-05-17T06:02:21.677Z,82.74
2019-05-17T06:03:19.016Z,81.72
2019-05-17T06:04:19.042Z,82.03
2019-05-17T06:05:19.001Z,81.72
2019-05-17T06:06:21.404Z,81.93
2019-05-17T06:07:21.461Z,81.58
2019-05-17T06:08:18.967Z,82.23
2019-05-17T06:09:18.993Z,81.52
2019-05-17T06:10:18.950Z,81.88
2019-05-17T06:11:18.938Z,81.62
2019-05-17T06:12:23.579Z,82.09
2019-05-17T06:13:21.845Z,81.99
2019-05-17T06:14:18.947Z,82.50
2019-05-17T06:15:18.886Z,82.29
2019-05-17T06:16:18.883Z,81.79
2019-05-17T06:17:18.874Z,81.68
2019-05-17T06:18:18.860Z,81.58
2019-05-17T06:19:18.867Z,81.68
2019-05-17T06:20:18.853Z,81.07
2019-05-17T06:21:18.822Z,81.48
2019-05-17T06:22:18.826Z,80.97
2019-05-17T06:23:18.806Z,81.04
2019-05-17T06:24:18.820Z,81.13
2019-05-17T06:25:18.777Z,81.34
2019-05-17T06:26:18.838Z,80.42
2019-05-17T06:27:18.757Z,80.52
2019-05-17T06:28:18.749Z,81.04
2019-05-17T06:29:18.800Z,80.42
2019-05-17T06:30:18.741Z,80.42
2019-05-17T06:31:18.721Z,80.38
2019-05-17T06:32:18.702Z,80.18
2019-05-17T06:33:28.120Z,79.88
2019-05-17T06:34:22.168Z,80.29
2019-05-17T06:35:21.686Z,79.57
2019-05-17T06:36:18.666Z,80.24
2019-05-17T06:37:18.653Z,80.24
2019-05-17T06:38:18.638Z,80.04
2019-05-17T06:39:18.674Z,80.11
2019-05-17T06:40:18.675Z,80.21
2019-05-17T06:41:18.626Z,79.29
2019-05-17T06:42:18.600Z,80.11
2019-05-17T06:43:18.589Z,80.07
2019-05-17T06:44:18.665Z,79.36
2019-05-17T06:45:18.667Z,77.94
2019-05-17T06:46:18.561Z,76.31
2019-05-17T06:47:18.544Z,76.01
2019-05-17T06:48:18.543Z,77.63
2019-05-17T06:49:18.560Z,77.02
2019-05-17T06:50:18.530Z,77.43
2019-05-17T06:51:18.596Z,76.98
2019-05-17T06:52:18.539Z,77.19
2019-05-17T06:53:18.528Z,77.59
2019-05-17T06:54:18.508Z,77.56
2019-05-17T06:55:18.464Z,76.85
2019-05-17T06:56:18.450Z,77.15
2019-05-17T06:57:18.715Z,76.91
2019-05-17T06:58:19.033Z,76.51
2019-05-17T06:59:20.035Z,76.40
2019-05-17T07:00:23.519Z,75.25
2019-05-17T07:01:19.749Z,74.85
2019-05-17T07:02:19.769Z,75.01
2019-05-17T07:03:19.849Z,75.22
2019-05-17T07:04:19.328Z,74.91
2019-05-17T07:05:20.028Z,74.51
2019-05-17T07:06:18.343Z,73.49
2019-05-17T07:07:20.561Z,71.47
2019-05-17T07:08:20.177Z,71.23
2019-05-17T07:09:19.532Z,72.11
2019-05-17T07:10:19.618Z,70.89
2019-05-17T07:11:18.325Z,67.18
2019-05-17T07:12:20.198Z,67.96
2019-05-17T07:13:19.830Z,70.18
2019-05-17T07:14:20.042Z,71.40
2019-05-17T07:15:19.851Z,70.05
2019-05-17T07:16:19.715Z,69.92
2019-05-17T07:17:19.695Z,69.45
2019-05-17T07:18:19.431Z,66.93
2019-05-17T07:19:19.779Z,63.21
2019-05-17T07:20:19.409Z,57.94
2019-05-17T07:21:20.367Z,53.17
2019-05-17T07:22:18.183Z,47.57
2019-05-17T07:23:19.671Z,47.18
2019-05-17T07:24:19.539Z,44.40
2019-05-17T07:25:19.757Z,40.94
2019-05-17T07:26:19.733Z,38.90
2019-05-17T07:27:19.358Z,39.65
2019-05-17T07:28:19.915Z,38.09
2019-05-17T07:29:19.388Z,37.16
2019-05-17T07:30:19.474Z,36.52
2019-05-17T07:31:21.242Z,35.52
2019-05-17T07:32:19.432Z,35.05
2019-05-17T07:33:19.926Z,36.10
2019-05-17T07:34:19.980Z,39.22
2019-05-17T07:35:19.805Z,41.08
2019-05-17T07:36:19.674Z,40.74
2019-05-17T07:37:19.593Z,43.19
2019-05-17T07:38:19.958Z,42.03
2019-05-17T07:39:20.305Z,44.45
2019-05-17T07:40:19.828Z,41.02
2019-05-17T07:41:20.266Z,41.91
2019-05-17T07:42:19.551Z,39.63
2019-05-17T07:43:20.554Z,37.48
2019-05-17T07:44:20.380Z,36.30
2019-05-17T07:45:20.223Z,34.28
2019-05-17T07:46:20.482Z,32.24
2019-05-17T07:47:20.139Z,29.55
2019-05-17T07:48:19.942Z,29.62
2019-05-17T07:49:19.963Z,30.36
2019-05-17T07:50:19.688Z,28.68
2019-05-17T07:51:19.514Z,28.47
2019-05-17T07:52:17.863Z,26.42
2019-05-17T07:53:20.156Z,26.79
2019-05-17T07:54:19.744Z,27.28
2019-05-17T07:55:22.522Z,26.28
2019-05-17T07:56:20.048Z,27.15
2019-05-17T07:57:20.574Z,26.93
2019-05-17T07:58:21.126Z,24.98
2019-05-17T07:59:19.849Z,25.74
2019-05-17T08:00:20.134Z,25.82
2019-05-17T08:01:20.288Z,25.62
2019-05-17T08:02:19.839Z,23.96
2019-05-17T08:03:17.748Z,25.42
2019-05-17T08:04:17.749Z,23.95
2019-05-17T08:05:17.780Z,25.98
2019-05-17T08:06:19.893Z,25.70
2019-05-17T08:07:19.691Z,25.69
2019-05-17T08:08:20.557Z,24.32
2019-05-17T08:09:20.328Z,23.33
2019-05-17T08:10:20.206Z,23.13
2019-05-17T08:11:19.688Z,23.70
2019-05-17T08:12:19.866Z,23.41
2019-05-17T08:13:27.296Z,23.79
2019-05-17T08:14:29.425Z,22.61
2019-05-17T08:15:19.788Z,23.66
2019-05-17T08:16:19.530Z,23.36
2019-05-17T08:17:19.853Z,23.07
2019-05-17T08:18:17.614Z,22.77
2019-05-17T08:19:17.613Z,22.95
2019-05-17T08:20:17.615Z,23.14
2019-05-17T08:21:19.724Z,23.13
2019-05-17T08:22:20.012Z,22.06
2019-05-17T08:23:19.898Z,23.33
2019-05-17T08:24:19.576Z,22.94
2019-05-17T08:25:19.903Z,22.92
2019-05-17T08:26:19.947Z,22.91
2019-05-17T08:27:19.944Z,21.94
2019-05-17T08:28:17.522Z,22.71
2019-05-17T08:29:17.513Z,21.45
2019-05-17T08:30:20.065Z,22.50
2019-05-17T08:31:17.503Z,22.40
2019-05-17T08:32:17.489Z,20.47
2019-05-17T08:33:19.354Z,21.42
2019-05-17T08:34:19.660Z,22.29
2019-05-17T08:35:19.692Z,20.46
2019-05-17T08:36:19.727Z,21.51
2019-05-17T08:37:17.451Z,21.31
2019-05-17T08:38:19.581Z,20.25
2019-05-17T08:39:19.718Z,20.92
2019-05-17T08:40:19.802Z,21.98
2019-05-17T08:41:17.730Z,21.50
2019-05-17T08:42:20.336Z,22.16
2019-05-17T08:43:17.403Z,22.08
2019-05-17T08:44:19.232Z,21.50
2019-05-17T08:45:17.417Z,21.31
2019-05-17T08:46:19.772Z,21.40
2019-05-17T08:47:20.695Z,20.05
2019-05-17T08:48:17.366Z,20.34
2019-05-17T08:49:17.356Z,21.12
2019-05-17T08:50:19.867Z,20.45
2019-05-17T08:51:19.582Z,20.06
2019-05-17T08:52:17.328Z,21.12
2019-05-17T08:53:19.681Z,20.25
2019-05-17T08:54:19.509Z,19.67
2019-05-17T08:55:17.304Z,21.10
2019-05-17T08:56:17.332Z,19.85
2019-05-17T08:57:17.292Z,19.57
2019-05-17T08:58:17.288Z,19.68
2019-05-17T08:59:17.302Z,19.76
2019-05-17T09:00:20.435Z,20.53
2019-05-17T09:01:19.516Z,20.53
2019-05-17T09:02:19.729Z,19.36
2019-05-17T09:03:19.446Z,19.55
2019-05-17T09:04:17.238Z,19.18
2019-05-17T09:05:17.236Z,18.88
2019-05-17T09:06:19.903Z,19.27
2019-05-17T09:07:17.225Z,18.98
2019-05-17T09:08:17.211Z,18.50
2019-05-17T09:09:17.204Z,19.85
2019-05-17T09:10:17.197Z,19.65
2019-05-17T09:11:19.540Z,20.13
2019-05-17T09:12:17.182Z,19.74
2019-05-17T09:13:19.387Z,19.17
2019-05-17T09:14:17.164Z,19.26
2019-05-17T09:15:17.156Z,19.56
2019-05-17T09:16:19.458Z,19.37
2019-05-17T09:17:19.224Z,19.84
2019-05-17T09:18:17.135Z,19.73
2019-05-17T09:19:19.056Z,19.26
2019-05-17T09:20:17.122Z,18.98
2019-05-17T09:21:17.146Z,19.37
2019-05-17T09:22:17.128Z,18.12
2019-05-17T09:23:19.482Z,18.88
2019-05-17T09:24:19.349Z,19.00
2019-05-17T09:25:19.124Z,19.67
2019-05-17T09:26:17.103Z,19.37
2019-05-17T09:27:19.592Z,18.40
2019-05-17T09:28:17.064Z,18.41
2019-05-17T09:29:17.059Z,19.85
2019-05-17T09:30:17.047Z,19.18
2019-05-17T09:31:17.061Z,19.67
2019-05-17T09:32:17.030Z,19.85
2019-05-17T09:33:19.137Z,19.17
2019-05-17T09:34:17.029Z,18.77
2019-05-17T09:35:17.018Z,19.27
2019-05-17T09:36:17.031Z,20.05
2019-05-17T09:37:21.739Z,19.18
2019-05-17T09:38:20.146Z,18.98
2019-05-17T09:39:16.979Z,19.09
2019-05-17T09:40:16.976Z,19.08
2019-05-17T09:41:17.003Z,19.07
2019-05-17T09:42:16.965Z,18.95
2019-05-17T09:43:16.965Z,19.23
2019-05-17T09:44:16.958Z,19.23
2019-05-17T09:45:16.937Z,18.26
2019-05-17T09:46:19.475Z,18.15
2019-05-17T09:47:16.932Z,18.80
2019-05-17T09:48:19.480Z,19.88
2019-05-17T09:49:19.165Z,19.86
2019-05-17T09:50:16.904Z,20.07
2019-05-17T09:51:16.903Z,19.86
2019-05-17T09:52:16.915Z,19.56
2019-05-17T09:53:16.886Z,19.36
2019-05-17T09:54:16.883Z,19.17
2019-05-17T09:55:16.873Z,19.25
2019-05-17T09:56:16.860Z,19.43
2019-05-17T09:57:16.896Z,18.78
2019-05-17T09:58:16.844Z,19.48
2019-05-17T09:59:16.836Z,21.66
2019-05-17T10:00:16.837Z,21.34
2019-05-17T10:01:16.835Z,20.73
2019-05-17T10:02:16.855Z,19.74
2019-05-17T10:03:16.818Z,19.53
2019-05-17T10:04:16.802Z,19.32
2019-05-17T10:05:16.795Z,19.63
2019-05-17T10:06:16.792Z,20.08
2019-05-17T10:07:16.825Z,21.98
2019-05-17T10:08:16.771Z,22.13
2019-05-17T10:09:16.770Z,23.65
2019-05-17T10:10:16.755Z,24.19
2019-05-17T10:11:16.755Z,26.00
2019-05-17T10:12:16.779Z,27.23
2019-05-17T10:13:16.737Z,28.34
2019-05-17T10:14:25.745Z,29.86
2019-05-17T10:15:17.723Z,30.07
2019-05-17T10:16:16.713Z,29.89
2019-05-17T10:17:16.726Z,29.99
2019-05-17T10:18:16.685Z,29.62
2019-05-17T10:19:16.685Z,27.78
2019-05-17T10:20:16.672Z,26.48
2019-05-17T10:21:16.671Z,26.46
2019-05-17T10:22:16.654Z,25.79
2019-05-17T10:23:19.541Z,26.59
2019-05-17T10:24:16.636Z,26.71
2019-05-17T10:25:16.634Z,26.83
2019-05-17T10:26:16.672Z,27.55
2019-05-17T10:27:16.740Z,28.29
2019-05-17T10:28:16.635Z,29.49
2019-05-17T10:29:16.636Z,29.80
2019-05-17T10:30:16.579Z,29.80
2019-05-17T10:31:16.574Z,29.92
2019-05-17T10:32:16.568Z,29.93
2019-05-17T10:33:16.579Z,31.21
2019-05-17T10:34:16.553Z,29.92
2019-05-17T10:35:16.539Z,29.43
2019-05-17T10:36:20.422Z,29.83
2019-05-17T10:37:16.539Z,29.94
2019-05-17T10:38:16.545Z,31.04
2019-05-17T10:39:16.544Z,32.14
2019-05-17T10:40:16.545Z,32.47
2019-05-17T10:41:16.496Z,31.78
2019-05-17T10:42:16.500Z,31.99
2019-05-17T10:43:16.496Z,32.49
2019-05-17T10:44:16.563Z,33.62
2019-05-17T10:45:16.468Z,33.62
2019-05-17T10:46:16.486Z,34.51
2019-05-17T10:47:16.438Z,34.31
2019-05-17T10:48:16.447Z,34.34
2019-05-17T10:49:16.925Z,35.35
2019-05-17T10:50:16.448Z,36.24
2019-05-17T10:51:17.426Z,36.16
2019-05-17T10:52:16.405Z,36.66
2019-05-17T10:53:16.387Z,36.28
2019-05-17T10:54:16.368Z,35.39
2019-05-17T10:55:16.551Z,35.78
2019-05-17T10:56:16.350Z,35.88
2019-05-17T10:57:16.352Z,36.71
2019-05-17T10:58:16.375Z,36.81
2019-05-17T10:59:16.423Z,37.43
2019-05-17T11:00:19.567Z,37.64
2019-05-17T11:01:16.319Z,37.64
2019-05-17T11:02:16.300Z,37.45
2019-05-17T11:03:16.932Z,37.64
2019-05-17T11:04:16.290Z,36.53
2019-05-17T11:05:16.243Z,37.04
2019-05-17T11:06:16.232Z,37.84
2019-05-17T11:07:16.217Z,37.64
2019-05-17T11:08:16.250Z,37.36
2019-05-17T11:09:16.588Z,37.56
2019-05-17T11:10:16.190Z,37.98
2019-05-17T11:11:16.179Z,38.77
2019-05-17T11:12:16.172Z,40.14
2019-05-17T11:13:16.172Z,40.36
2019-05-17T11:14:16.228Z,39.76
2019-05-17T11:15:16.133Z,40.26
2019-05-17T11:16:16.125Z,40.06
2019-05-17T11:17:16.126Z,39.37
2019-05-17T11:18:16.106Z,40.66
2019-05-17T11:19:16.134Z,40.96
2019-05-17T11:20:16.103Z,40.46
2019-05-17T11:21:16.071Z,41.25
2019-05-17T11:22:16.136Z,40.88
2019-05-17T11:23:16.049Z,40.68
2019-05-17T11:24:16.077Z,41.28
2019-05-17T11:25:16.064Z,41.77
2019-05-17T11:26:16.016Z,40.90
2019-05-17T11:27:16.007Z,41.89
2019-05-17T11:28:16.064Z,41.61
2019-05-17T11:29:16.003Z,41.82
2019-05-17T11:30:16.003Z,41.02
2019-05-17T11:31:16.078Z,40.64
2019-05-17T11:32:16.153Z,41.46
2019-05-17T11:33:15.945Z,42.05
2019-05-17T11:34:15.938Z,42.75
2019-05-17T11:35:16.047Z,43.05
2019-05-17T11:36:15.949Z,43.57
2019-05-17T11:37:15.917Z,43.17
2019-05-17T11:38:15.912Z,43.27
2019-05-17T11:39:15.886Z,43.67
2019-05-17T11:40:15.905Z,43.27
2019-05-17T11:41:21.018Z,43.77
2019-05-17T11:42:18.015Z,43.19
2019-05-17T11:43:16.102Z,43.57
2019-05-17T11:44:15.861Z,43.47
2019-05-17T11:45:27.265Z,43.09
2019-05-17T11:46:16.811Z,42.91
2019-05-17T11:47:15.797Z,42.83
2019-05-17T11:48:15.796Z,43.25
2019-05-17T11:49:15.787Z,43.55
2019-05-17T11:50:15.802Z,44.67
2019-05-17T11:51:15.762Z,45.17
2019-05-17T11:52:16.006Z,43.77
2019-05-17T11:53:15.863Z,43.55
2019-05-17T11:54:15.735Z,44.95
2019-05-17T11:55:15.738Z,43.73
2019-05-17T11:56:15.707Z,42.73
2019-05-17T11:57:15.705Z,43.73
2019-05-17T11:58:15.680Z,42.83
2019-05-17T11:59:15.714Z,43.53
2019-05-17T12:00:15.696Z,42.24
2019-05-17T12:01:15.653Z,44.23
2019-05-17T12:02:15.649Z,44.23
2019-05-17T12:03:15.642Z,44.43
2019-05-17T12:04:15.635Z,43.43
2019-05-17T12:05:15.682Z,44.33
2019-05-17T12:06:15.619Z,44.31
2019-05-17T12:07:15.590Z,43.61
2019-05-17T12:08:15.586Z,43.51
2019-05-17T12:09:15.570Z,42.61
2019-05-17T12:10:15.593Z,43.31
2019-05-17T12:11:15.548Z,42.02
2019-05-17T12:12:15.536Z,42.13
2019-05-17T12:13:15.530Z,43.15
2019-05-17T12:14:15.521Z,43.13
2019-05-17T12:15:15.542Z,43.15
2019-05-17T12:16:15.495Z,43.13
2019-05-17T12:17:15.484Z,43.23
2019-05-17T12:18:15.482Z,43.41
2019-05-17T12:19:15.460Z,43.21
2019-05-17T12:20:15.499Z,43.49
2019-05-17T12:21:15.447Z,43.59
2019-05-17T12:22:15.436Z,43.37
2019-05-17T12:23:15.422Z,42.18
2019-05-17T12:24:15.416Z,42.47
2019-05-17T12:25:15.439Z,40.86
2019-05-17T12:26:15.389Z,40.76
2019-05-17T12:27:15.375Z,41.46
2019-05-17T12:28:15.379Z,40.86
2019-05-17T12:29:15.365Z,40.56
2019-05-17T12:30:15.380Z,40.66
2019-05-17T12:31:15.333Z,40.94
2019-05-17T12:32:17.145Z,41.83
2019-05-17T12:33:15.317Z,39.34
2019-05-17T12:34:15.338Z,40.64
2019-05-17T12:35:15.294Z,40.56
2019-05-17T12:36:15.314Z,41.53
2019-05-17T12:37:15.272Z,39.74
2019-05-17T12:38:15.260Z,39.94
2019-05-17T12:39:15.253Z,40.95
2019-05-17T12:40:15.240Z,41.55
2019-05-17T12:41:15.250Z,41.88
2019-05-17T12:42:15.222Z,42.37
2019-05-17T12:43:15.230Z,42.57
2019-05-17T12:44:15.193Z,42.99
2019-05-17T12:45:15.183Z,42.21
2019-05-17T12:46:15.210Z,43.31
2019-05-17T12:47:15.171Z,43.43
2019-05-17T12:48:15.158Z,43.55
2019-05-17T12:49:15.141Z,43.55
2019-05-17T12:50:15.130Z,44.05
2019-05-17T12:51:15.143Z,44.07
2019-05-17T12:52:15.116Z,43.57